sensor_id;sensor_type;location;lat;lon;timestamp;P1;durP1;ratioP1;P2;durP2;ratioP2
19905;SDS011;10115;50.906;4.438;2023-03-07T00:00:43;7.73;;;7.27;;
19905;SDS011;10115;50.906;4.438;2023-03-07T00:03:10;6.13;;;5.83;;
19905;SDS011;10115;50.906;4.438;2023-03-07T00:05:38;8.17;;;7.67;;
19905;SDS011;10115;50.906;4.438;2023-03-07T00:08:04;6.53;;;6.20;;
19905;SDS011;10115;50.906;4.438;2023-03-07T00:10:30;11.03;;;7.63;;
19905;SDS011;10115;50.906;4.438;2023-03-07T00:12:56;6.80;;;6.50;;
19905;SDS011;10115;50.906;4.438;2023-03-07T00:15:21;6.17;;;5.97;;
19905;SDS011;10115;50.906;4.438;2023-03-07T00:17:47;7.73;;;7.17;;
19905;SDS011;10115;50.906;4.438;2023-03-07T00:20:13;6.83;;;6.47;;
19905;SDS011;10115;50.906;4.438;2023-03-07T00:22:39;6.60;;;5.97;;
19905;SDS011;10115;50.906;4.438;2023-03-07T00:25:05;10.77;;;10.07;;
19905;SDS011;10115;50.906;4.438;2023-03-07T00:27:31;7.00;;;6.70;;
19905;SDS011;10115;50.906;4.438;2023-03-07T00:29:58;15.73;;;14.13;;
19905;SDS011;10115;50.906;4.438;2023-03-07T00:32:24;14.73;;;13.70;;
19905;SDS011;10115;50.906;4.438;2023-03-07T00:34:50;11.50;;;10.87;;
19905;SDS011;10115;50.906;4.438;2023-03-07T00:37:16;13.03;;;12.33;;
19905;SDS011;10115;50.906;4.438;2023-03-07T00:39:42;12.77;;;11.83;;
19905;SDS011;10115;50.906;4.438;2023-03-07T00:42:08;12.83;;;12.23;;
19905;SDS011;10115;50.906;4.438;2023-03-07T00:44:33;13.93;;;13.20;;
19905;SDS011;10115;50.906;4.438;2023-03-07T00:47:00;13.70;;;13.10;;
19905;SDS011;10115;50.906;4.438;2023-03-07T00:49:26;15.63;;;13.93;;
19905;SDS011;10115;50.906;4.438;2023-03-07T00:51:52;13.70;;;12.50;;
19905;SDS011;10115;50.906;4.438;2023-03-07T00:54:18;13.37;;;12.60;;
19905;SDS011;10115;50.906;4.438;2023-03-07T00:56:44;14.40;;;13.30;;
19905;SDS011;10115;50.906;4.438;2023-03-07T00:59:10;13.77;;;12.83;;
19905;SDS011;10115;50.906;4.438;2023-03-07T01:01:36;16.43;;;15.13;;
19905;SDS011;10115;50.906;4.438;2023-03-07T01:04:02;13.17;;;12.37;;
19905;SDS011;10115;50.906;4.438;2023-03-07T01:06:29;14.87;;;13.50;;
19905;SDS011;10115;50.906;4.438;2023-03-07T01:08:56;16.33;;;14.73;;
19905;SDS011;10115;50.906;4.438;2023-03-07T01:11:24;15.20;;;13.77;;
19905;SDS011;10115;50.906;4.438;2023-03-07T01:13:50;15.70;;;14.57;;
19905;SDS011;10115;50.906;4.438;2023-03-07T01:16:20;12.07;;;11.37;;
19905;SDS011;10115;50.906;4.438;2023-03-07T01:18:48;14.20;;;13.40;;
19905;SDS011;10115;50.906;4.438;2023-03-07T01:21:16;17.63;;;15.97;;
19905;SDS011;10115;50.906;4.438;2023-03-07T01:23:44;18.37;;;15.57;;
19905;SDS011;10115;50.906;4.438;2023-03-07T01:26:11;14.00;;;12.73;;
19905;SDS011;10115;50.906;4.438;2023-03-07T01:28:44;12.93;;;12.13;;
19905;SDS011;10115;50.906;4.438;2023-03-07T01:31:10;11.53;;;10.83;;
19905;SDS011;10115;50.906;4.438;2023-03-07T01:33:36;9.47;;;8.77;;
19905;SDS011;10115;50.906;4.438;2023-03-07T01:36:02;13.40;;;12.10;;
19905;SDS011;10115;50.906;4.438;2023-03-07T01:38:28;11.77;;;10.63;;
19905;SDS011;10115;50.906;4.438;2023-03-07T01:40:59;10.43;;;9.73;;
19905;SDS011;10115;50.906;4.438;2023-03-07T01:43:30;11.20;;;9.63;;
19905;SDS011;10115;50.906;4.438;2023-03-07T01:46:17;13.23;;;12.47;;
19905;SDS011;10115;50.906;4.438;2023-03-07T01:48:51;41.07;;;13.53;;
19905;SDS011;10115;50.906;4.438;2023-03-07T01:51:31;13.10;;;11.93;;
19905;SDS011;10115;50.906;4.438;2023-03-07T01:54:00;15.00;;;13.60;;
19905;SDS011;10115;50.906;4.438;2023-03-07T01:56:26;10.30;;;9.50;;
19905;SDS011;10115;50.906;4.438;2023-03-07T01:58:52;11.60;;;10.47;;
19905;SDS011;10115;50.906;4.438;2023-03-07T02:01:19;10.33;;;9.67;;
19905;SDS011;10115;50.906;4.438;2023-03-07T02:03:54;11.80;;;10.90;;
19905;SDS011;10115;50.906;4.438;2023-03-07T02:06:36;8.57;;;8.10;;
19905;SDS011;10115;50.906;4.438;2023-03-07T02:09:02;9.23;;;8.73;;
19905;SDS011;10115;50.906;4.438;2023-03-07T02:11:36;9.97;;;9.27;;
19905;SDS011;10115;50.906;4.438;2023-03-07T02:14:03;9.17;;;8.37;;
19905;SDS011;10115;50.906;4.438;2023-03-07T02:16:29;8.53;;;7.97;;
19905;SDS011;10115;50.906;4.438;2023-03-07T02:18:55;11.50;;;10.70;;
19905;SDS011;10115;50.906;4.438;2023-03-07T02:21:37;6.63;;;6.33;;
19905;SDS011;10115;50.906;4.438;2023-03-07T02:24:21;8.17;;;7.57;;
19905;SDS011;10115;50.906;4.438;2023-03-07T02:26:52;8.27;;;7.80;;
19905;SDS011;10115;50.906;4.438;2023-03-07T02:29:19;12.33;;;11.17;;
19905;SDS011;10115;50.906;4.438;2023-03-07T02:31:44;12.33;;;11.37;;
19905;SDS011;10115;50.906;4.438;2023-03-07T02:34:16;8.53;;;8.03;;
19905;SDS011;10115;50.906;4.438;2023-03-07T02:36:46;10.83;;;9.83;;
19905;SDS011;10115;50.906;4.438;2023-03-07T02:39:14;9.87;;;9.17;;
19905;SDS011;10115;50.906;4.438;2023-03-07T02:41:40;9.03;;;8.53;;
19905;SDS011;10115;50.906;4.438;2023-03-07T02:44:07;11.30;;;10.43;;
19905;SDS011;10115;50.906;4.438;2023-03-07T02:46:32;11.27;;;9.57;;
19905;SDS011;10115;50.906;4.438;2023-03-07T02:48:58;11.10;;;10.27;;
19905;SDS011;10115;50.906;4.438;2023-03-07T02:51:23;9.30;;;8.60;;
19905;SDS011;10115;50.906;4.438;2023-03-07T02:53:49;9.33;;;8.73;;
19905;SDS011;10115;50.906;4.438;2023-03-07T02:56:15;8.40;;;8.00;;
19905;SDS011;10115;50.906;4.438;2023-03-07T02:58:41;10.90;;;9.97;;
19905;SDS011;10115;50.906;4.438;2023-03-07T03:01:06;8.30;;;7.90;;
19905;SDS011;10115;50.906;4.438;2023-03-07T03:03:32;7.40;;;7.00;;
19905;SDS011;10115;50.906;4.438;2023-03-07T03:05:57;8.33;;;7.53;;
19905;SDS011;10115;50.906;4.438;2023-03-07T03:08:23;9.10;;;8.40;;
19905;SDS011;10115;50.906;4.438;2023-03-07T03:10:52;7.90;;;7.50;;
19905;SDS011;10115;50.906;4.438;2023-03-07T03:13:19;8.43;;;7.93;;
19905;SDS011;10115;50.906;4.438;2023-03-07T03:15:45;11.57;;;10.67;;
19905;SDS011;10115;50.906;4.438;2023-03-07T03:18:11;8.10;;;7.60;;
19905;SDS011;10115;50.906;4.438;2023-03-07T03:20:40;16.20;;;10.00;;
19905;SDS011;10115;50.906;4.438;2023-03-07T03:23:06;12.03;;;10.60;;
19905;SDS011;10115;50.906;4.438;2023-03-07T03:25:32;9.10;;;8.53;;
19905;SDS011;10115;50.906;4.438;2023-03-07T03:27:57;10.90;;;9.77;;
19905;SDS011;10115;50.906;4.438;2023-03-07T03:30:23;6.53;;;6.20;;
19905;SDS011;10115;50.906;4.438;2023-03-07T03:32:50;11.43;;;10.30;;
19905;SDS011;10115;50.906;4.438;2023-03-07T03:35:16;9.60;;;9.07;;
19905;SDS011;10115;50.906;4.438;2023-03-07T03:37:41;10.23;;;9.47;;
19905;SDS011;10115;50.906;4.438;2023-03-07T03:40:07;9.17;;;8.30;;
19905;SDS011;10115;50.906;4.438;2023-03-07T03:42:39;15.30;;;10.17;;
19905;SDS011;10115;50.906;4.438;2023-03-07T03:45:06;11.47;;;10.43;;
19905;SDS011;10115;50.906;4.438;2023-03-07T03:47:33;17.23;;;9.93;;
19905;SDS011;10115;50.906;4.438;2023-03-07T03:49:59;10.17;;;9.30;;
19905;SDS011;10115;50.906;4.438;2023-03-07T03:52:25;8.67;;;8.00;;
19905;SDS011;10115;50.906;4.438;2023-03-07T03:54:50;12.20;;;9.07;;
19905;SDS011;10115;50.906;4.438;2023-03-07T03:57:16;7.83;;;7.07;;
19905;SDS011;10115;50.906;4.438;2023-03-07T03:59:44;7.77;;;7.37;;
19905;SDS011;10115;50.906;4.438;2023-03-07T04:02:10;10.00;;;9.07;;
19905;SDS011;10115;50.906;4.438;2023-03-07T04:04:36;10.67;;;9.63;;
19905;SDS011;10115;50.906;4.438;2023-03-07T04:07:02;10.17;;;9.20;;
19905;SDS011;10115;50.906;4.438;2023-03-07T04:09:28;10.00;;;9.00;;
19905;SDS011;10115;50.906;4.438;2023-03-07T04:11:57;9.73;;;8.93;;
19905;SDS011;10115;50.906;4.438;2023-03-07T04:14:22;7.67;;;7.27;;
19905;SDS011;10115;50.906;4.438;2023-03-07T04:16:48;6.97;;;6.50;;
19905;SDS011;10115;50.906;4.438;2023-03-07T04:19:14;9.40;;;8.60;;
19905;SDS011;10115;50.906;4.438;2023-03-07T04:21:39;10.63;;;9.63;;
19905;SDS011;10115;50.906;4.438;2023-03-07T04:24:06;6.57;;;6.27;;
19905;SDS011;10115;50.906;4.438;2023-03-07T04:26:32;10.20;;;9.20;;
19905;SDS011;10115;50.906;4.438;2023-03-07T04:28:59;9.27;;;8.20;;
19905;SDS011;10115;50.906;4.438;2023-03-07T04:31:25;7.83;;;7.40;;
19905;SDS011;10115;50.906;4.438;2023-03-07T04:33:53;8.33;;;7.77;;
19905;SDS011;10115;50.906;4.438;2023-03-07T04:36:19;7.80;;;7.17;;
19905;SDS011;10115;50.906;4.438;2023-03-07T04:38:46;9.47;;;8.60;;
19905;SDS011;10115;50.906;4.438;2023-03-07T04:41:14;10.07;;;9.33;;
19905;SDS011;10115;50.906;4.438;2023-03-07T04:43:41;7.87;;;7.37;;
19905;SDS011;10115;50.906;4.438;2023-03-07T04:46:07;10.70;;;9.70;;
19905;SDS011;10115;50.906;4.438;2023-03-07T04:48:34;11.50;;;9.57;;
19905;SDS011;10115;50.906;4.438;2023-03-07T04:50:59;7.87;;;7.40;;
19905;SDS011;10115;50.906;4.438;2023-03-07T04:53:25;8.60;;;7.97;;
19905;SDS011;10115;50.906;4.438;2023-03-07T04:55:56;9.00;;;8.30;;
19905;SDS011;10115;50.906;4.438;2023-03-07T04:58:23;8.03;;;7.57;;
19905;SDS011;10115;50.906;4.438;2023-03-07T05:00:48;20.30;;;11.47;;
19905;SDS011;10115;50.906;4.438;2023-03-07T05:03:14;28.57;;;9.30;;
19905;SDS011;10115;50.906;4.438;2023-03-07T05:05:40;11.50;;;10.40;;
19905;SDS011;10115;50.906;4.438;2023-03-07T05:08:05;10.77;;;9.47;;
19905;SDS011;10115;50.906;4.438;2023-03-07T05:10:32;8.27;;;7.43;;
19905;SDS011;10115;50.906;4.438;2023-03-07T05:12:58;9.10;;;8.50;;
19905;SDS011;10115;50.906;4.438;2023-03-07T05:15:24;7.80;;;7.30;;
19905;SDS011;10115;50.906;4.438;2023-03-07T05:17:50;9.23;;;8.53;;
19905;SDS011;10115;50.906;4.438;2023-03-07T05:20:16;10.63;;;9.13;;
19905;SDS011;10115;50.906;4.438;2023-03-07T05:22:43;9.13;;;8.20;;
19905;SDS011;10115;50.906;4.438;2023-03-07T05:25:08;9.63;;;8.63;;
19905;SDS011;10115;50.906;4.438;2023-03-07T05:27:34;11.27;;;9.17;;
19905;SDS011;10115;50.906;4.438;2023-03-07T05:30:00;8.73;;;8.33;;
19905;SDS011;10115;50.906;4.438;2023-03-07T05:32:26;9.37;;;8.60;;
19905;SDS011;10115;50.906;4.438;2023-03-07T05:34:51;10.03;;;9.17;;
19905;SDS011;10115;50.906;4.438;2023-03-07T05:37:17;8.53;;;7.80;;
19905;SDS011;10115;50.906;4.438;2023-03-07T05:39:43;10.13;;;9.33;;
19905;SDS011;10115;50.906;4.438;2023-03-07T05:42:08;9.13;;;8.37;;
19905;SDS011;10115;50.906;4.438;2023-03-07T05:44:34;10.50;;;9.50;;
19905;SDS011;10115;50.906;4.438;2023-03-07T05:47:00;7.33;;;6.73;;
19905;SDS011;10115;50.906;4.438;2023-03-07T05:49:25;7.13;;;6.63;;
19905;SDS011;10115;50.906;4.438;2023-03-07T05:51:51;9.27;;;8.50;;
19905;SDS011;10115;50.906;4.438;2023-03-07T05:54:17;8.03;;;7.43;;
19905;SDS011;10115;50.906;4.438;2023-03-07T05:56:42;7.50;;;6.90;;
19905;SDS011;10115;50.906;4.438;2023-03-07T05:59:08;7.33;;;6.97;;
19905;SDS011;10115;50.906;4.438;2023-03-07T06:01:37;6.33;;;6.03;;
19905;SDS011;10115;50.906;4.438;2023-03-07T06:04:02;8.83;;;7.87;;
19905;SDS011;10115;50.906;4.438;2023-03-07T06:06:28;9.73;;;8.93;;
19905;SDS011;10115;50.906;4.438;2023-03-07T06:08:54;11.47;;;9.80;;
19905;SDS011;10115;50.906;4.438;2023-03-07T06:11:19;15.30;;;8.27;;
19905;SDS011;10115;50.906;4.438;2023-03-07T06:13:45;8.70;;;8.20;;
19905;SDS011;10115;50.906;4.438;2023-03-07T06:16:11;8.70;;;8.10;;
19905;SDS011;10115;50.906;4.438;2023-03-07T06:18:36;7.67;;;7.03;;
19905;SDS011;10115;50.906;4.438;2023-03-07T06:21:03;9.47;;;8.53;;
19905;SDS011;10115;50.906;4.438;2023-03-07T06:23:31;10.43;;;9.20;;
19905;SDS011;10115;50.906;4.438;2023-03-07T06:25:58;8.87;;;8.17;;
19905;SDS011;10115;50.906;4.438;2023-03-07T06:28:25;8.70;;;8.00;;
19905;SDS011;10115;50.906;4.438;2023-03-07T06:30:51;6.60;;;6.30;;
19905;SDS011;10115;50.906;4.438;2023-03-07T06:33:17;8.03;;;7.23;;
19905;SDS011;10115;50.906;4.438;2023-03-07T06:35:43;6.93;;;6.50;;
19905;SDS011;10115;50.906;4.438;2023-03-07T06:38:10;7.60;;;6.97;;
19905;SDS011;10115;50.906;4.438;2023-03-07T06:40:37;7.90;;;7.37;;
19905;SDS011;10115;50.906;4.438;2023-03-07T06:43:04;8.37;;;7.87;;
19905;SDS011;10115;50.906;4.438;2023-03-07T06:45:30;9.13;;;8.43;;
19905;SDS011;10115;50.906;4.438;2023-03-07T06:47:56;8.37;;;7.97;;
19905;SDS011;10115;50.906;4.438;2023-03-07T06:50:22;12.30;;;9.27;;
19905;SDS011;10115;50.906;4.438;2023-03-07T06:52:47;12.93;;;10.20;;
19905;SDS011;10115;50.906;4.438;2023-03-07T06:55:15;7.40;;;6.83;;
19905;SDS011;10115;50.906;4.438;2023-03-07T06:57:44;12.70;;;11.93;;
19905;SDS011;10115;50.906;4.438;2023-03-07T07:00:11;7.43;;;6.93;;
19905;SDS011;10115;50.906;4.438;2023-03-07T07:02:37;9.90;;;9.10;;
19905;SDS011;10115;50.906;4.438;2023-03-07T07:05:04;8.20;;;7.60;;
19905;SDS011;10115;50.906;4.438;2023-03-07T07:07:30;7.50;;;6.87;;
19905;SDS011;10115;50.906;4.438;2023-03-07T07:09:56;8.77;;;8.13;;
19905;SDS011;10115;50.906;4.438;2023-03-07T07:12:22;10.47;;;9.40;;
19905;SDS011;10115;50.906;4.438;2023-03-07T07:14:48;6.80;;;6.47;;
19905;SDS011;10115;50.906;4.438;2023-03-07T07:17:13;6.57;;;6.27;;
19905;SDS011;10115;50.906;4.438;2023-03-07T07:19:39;10.73;;;9.73;;
19905;SDS011;10115;50.906;4.438;2023-03-07T07:22:05;8.80;;;8.03;;
19905;SDS011;10115;50.906;4.438;2023-03-07T07:24:35;8.90;;;8.30;;
19905;SDS011;10115;50.906;4.438;2023-03-07T07:27:02;10.07;;;9.07;;
19905;SDS011;10115;50.906;4.438;2023-03-07T07:29:28;7.40;;;7.00;;
19905;SDS011;10115;50.906;4.438;2023-03-07T07:31:53;11.70;;;10.47;;
19905;SDS011;10115;50.906;4.438;2023-03-07T07:34:19;9.17;;;8.47;;
19905;SDS011;10115;50.906;4.438;2023-03-07T07:36:45;7.20;;;6.63;;
19905;SDS011;10115;50.906;4.438;2023-03-07T07:39:10;11.73;;;8.37;;
19905;SDS011;10115;50.906;4.438;2023-03-07T07:41:37;9.67;;;8.73;;
19905;SDS011;10115;50.906;4.438;2023-03-07T07:44:03;9.23;;;8.30;;
19905;SDS011;10115;50.906;4.438;2023-03-07T07:46:28;9.33;;;8.37;;
19905;SDS011;10115;50.906;4.438;2023-03-07T07:48:54;7.93;;;7.33;;
19905;SDS011;10115;50.906;4.438;2023-03-07T07:51:20;10.10;;;9.37;;
19905;SDS011;10115;50.906;4.438;2023-03-07T07:53:46;8.10;;;7.50;;
19905;SDS011;10115;50.906;4.438;2023-03-07T07:56:12;8.80;;;8.17;;
19905;SDS011;10115;50.906;4.438;2023-03-07T07:58:38;7.60;;;7.20;;
19905;SDS011;10115;50.906;4.438;2023-03-07T08:01:14;9.10;;;8.40;;
19905;SDS011;10115;50.906;4.438;2023-03-07T08:03:41;8.63;;;8.13;;
19905;SDS011;10115;50.906;4.438;2023-03-07T08:06:07;9.20;;;8.43;;
19905;SDS011;10115;50.906;4.438;2023-03-07T08:08:33;9.13;;;8.47;;
19905;SDS011;10115;50.906;4.438;2023-03-07T08:10:58;8.70;;;8.07;;
19905;SDS011;10115;50.906;4.438;2023-03-07T08:13:24;17.83;;;9.30;;
19905;SDS011;10115;50.906;4.438;2023-03-07T08:15:49;18.43;;;10.40;;
19905;SDS011;10115;50.906;4.438;2023-03-07T08:18:15;10.20;;;9.17;;
19905;SDS011;10115;50.906;4.438;2023-03-07T08:20:41;8.77;;;7.77;;
19905;SDS011;10115;50.906;4.438;2023-03-07T08:23:06;6.60;;;6.30;;
19905;SDS011;10115;50.906;4.438;2023-03-07T08:25:32;8.30;;;7.70;;
19905;SDS011;10115;50.906;4.438;2023-03-07T08:27:58;8.07;;;7.47;;
19905;SDS011;10115;50.906;4.438;2023-03-07T08:30:27;8.30;;;7.80;;
19905;SDS011;10115;50.906;4.438;2023-03-07T08:32:54;8.23;;;7.53;;
19905;SDS011;10115;50.906;4.438;2023-03-07T08:41:48;8.57;;;7.87;;
19905;SDS011;10115;50.906;4.438;2023-03-07T08:44:14;7.37;;;6.80;;
19905;SDS011;10115;50.906;4.438;2023-03-07T08:46:40;6.67;;;6.30;;
19905;SDS011;10115;50.906;4.438;2023-03-07T08:49:05;6.20;;;5.90;;
19905;SDS011;10115;50.906;4.438;2023-03-07T08:51:31;9.07;;;7.97;;
19905;SDS011;10115;50.906;4.438;2023-03-07T08:53:57;7.73;;;7.13;;
19905;SDS011;10115;50.906;4.438;2023-03-07T08:56:23;10.97;;;9.87;;
19905;SDS011;10115;50.906;4.438;2023-03-07T08:58:51;6.83;;;6.33;;
19905;SDS011;10115;50.906;4.438;2023-03-07T09:01:17;11.30;;;8.80;;
19905;SDS011;10115;50.906;4.438;2023-03-07T09:03:43;9.33;;;8.53;;
19905;SDS011;10115;50.906;4.438;2023-03-07T09:06:13;10.10;;;7.03;;
19905;SDS011;10115;50.906;4.438;2023-03-07T09:08:44;8.77;;;8.03;;
19905;SDS011;10115;50.906;4.438;2023-03-07T09:11:11;7.10;;;6.70;;
19905;SDS011;10115;50.906;4.438;2023-03-07T09:13:37;7.30;;;6.80;;
19905;SDS011;10115;50.906;4.438;2023-03-07T09:16:04;9.33;;;8.53;;
19905;SDS011;10115;50.906;4.438;2023-03-07T09:18:30;9.43;;;8.43;;
19905;SDS011;10115;50.906;4.438;2023-03-07T09:21:00;6.93;;;6.57;;
19905;SDS011;10115;50.906;4.438;2023-03-07T09:23:26;6.20;;;5.90;;
19905;SDS011;10115;50.906;4.438;2023-03-07T09:25:52;7.23;;;6.83;;
19905;SDS011;10115;50.906;4.438;2023-03-07T09:28:17;8.60;;;8.03;;
19905;SDS011;10115;50.906;4.438;2023-03-07T09:30:43;6.67;;;6.37;;
19905;SDS011;10115;50.906;4.438;2023-03-07T09:33:09;6.33;;;6.03;;
19905;SDS011;10115;50.906;4.438;2023-03-07T09:35:36;6.60;;;6.20;;
19905;SDS011;10115;50.906;4.438;2023-03-07T09:38:02;8.33;;;7.63;;
19905;SDS011;10115;50.906;4.438;2023-03-07T09:40:28;6.40;;;6.10;;
19905;SDS011;10115;50.906;4.438;2023-03-07T09:43:00;8.40;;;7.80;;
19905;SDS011;10115;50.906;4.438;2023-03-07T09:51:17;7.50;;;7.10;;
19905;SDS011;10115;50.906;4.438;2023-03-07T09:53:57;6.53;;;6.13;;
19905;SDS011;10115;50.906;4.438;2023-03-07T09:56:38;5.93;;;5.73;;
19905;SDS011;10115;50.906;4.438;2023-03-07T09:59:11;5.60;;;5.40;;
19905;SDS011;10115;50.906;4.438;2023-03-07T10:01:50;7.40;;;6.70;;
19905;SDS011;10115;50.906;4.438;2023-03-07T10:04:34;5.43;;;5.23;;
19905;SDS011;10115;50.906;4.438;2023-03-07T10:07:16;5.60;;;5.40;;
19905;SDS011;10115;50.906;4.438;2023-03-07T10:09:47;5.77;;;5.57;;
19905;SDS011;10115;50.906;4.438;2023-03-07T10:15:00;5.20;;;5.00;;
19905;SDS011;10115;50.906;4.438;2023-03-07T10:17:47;6.17;;;5.90;;
19905;SDS011;10115;50.906;4.438;2023-03-07T10:23:14;5.53;;;5.33;;
19905;SDS011;10115;50.906;4.438;2023-03-07T10:25:52;5.77;;;5.57;;
19905;SDS011;10115;50.906;4.438;2023-03-07T10:28:30;6.77;;;6.13;;
19905;SDS011;10115;50.906;4.438;2023-03-07T10:31:20;5.93;;;5.63;;
19905;SDS011;10115;50.906;4.438;2023-03-07T10:33:48;5.87;;;5.57;;
19905;SDS011;10115;50.906;4.438;2023-03-07T10:36:18;6.27;;;5.93;;
19905;SDS011;10115;50.906;4.438;2023-03-07T10:41:27;5.53;;;5.33;;
19905;SDS011;10115;50.906;4.438;2023-03-07T10:43:53;6.03;;;5.80;;
19905;SDS011;10115;50.906;4.438;2023-03-07T10:46:26;6.23;;;5.60;;
19905;SDS011;10115;50.906;4.438;2023-03-07T10:49:01;5.73;;;5.53;;
19905;SDS011;10115;50.906;4.438;2023-03-07T10:54:34;7.43;;;7.03;;
19905;SDS011;10115;50.906;4.438;2023-03-07T10:59:39;7.50;;;7.20;;
19905;SDS011;10115;50.906;4.438;2023-03-07T11:04:54;12.37;;;11.87;;
19905;SDS011;10115;50.906;4.438;2023-03-07T11:09:57;10.37;;;9.97;;
19905;SDS011;10115;50.906;4.438;2023-03-07T11:12:24;11.47;;;10.93;;
19905;SDS011;10115;50.906;4.438;2023-03-07T11:14:56;11.77;;;11.17;;
19905;SDS011;10115;50.906;4.438;2023-03-07T11:17:52;12.57;;;12.07;;
19905;SDS011;10115;50.906;4.438;2023-03-07T11:20:23;12.53;;;12.00;;
19905;SDS011;10115;50.906;4.438;2023-03-07T11:25:39;14.73;;;14.00;;
19905;SDS011;10115;50.906;4.438;2023-03-07T11:28:22;12.90;;;12.30;;
19905;SDS011;10115;50.906;4.438;2023-03-07T11:31:00;11.97;;;11.47;;
19905;SDS011;10115;50.906;4.438;2023-03-07T11:33:55;12.27;;;11.57;;
19905;SDS011;10115;50.906;4.438;2023-03-07T11:36:43;10.83;;;10.33;;
19905;SDS011;10115;50.906;4.438;2023-03-07T11:41:51;10.40;;;9.90;;
19905;SDS011;10115;50.906;4.438;2023-03-07T11:49:52;7.53;;;7.23;;
19905;SDS011;10115;50.906;4.438;2023-03-07T11:58:56;6.67;;;6.37;;
19905;SDS011;10115;50.906;4.438;2023-03-07T12:18:00;6.13;;;5.83;;
19905;SDS011;10115;50.906;4.438;2023-03-07T12:20:43;6.40;;;6.00;;
19905;SDS011;10115;50.906;4.438;2023-03-07T12:25:58;6.60;;;6.30;;
19905;SDS011;10115;50.906;4.438;2023-03-07T12:28:30;6.23;;;5.93;;
19905;SDS011;10115;50.906;4.438;2023-03-07T12:33:56;11.23;;;10.73;;
19905;SDS011;10115;50.906;4.438;2023-03-07T12:36:43;13.53;;;12.93;;
19905;SDS011;10115;50.906;4.438;2023-03-07T12:39:22;8.17;;;7.77;;
19905;SDS011;10115;50.906;4.438;2023-03-07T12:42:12;8.30;;;7.80;;
19905;SDS011;10115;50.906;4.438;2023-03-07T12:44:59;11.47;;;10.97;;
19905;SDS011;10115;50.906;4.438;2023-03-07T12:47:50;8.27;;;7.93;;
19905;SDS011;10115;50.906;4.438;2023-03-07T12:53:42;10.23;;;9.73;;
19905;SDS011;10115;50.906;4.438;2023-03-07T12:59:12;7.40;;;7.10;;
19905;SDS011;10115;50.906;4.438;2023-03-07T13:01:43;8.97;;;8.47;;
19905;SDS011;10115;50.906;4.438;2023-03-07T13:04:13;7.57;;;7.07;;
19905;SDS011;10115;50.906;4.438;2023-03-07T13:06:55;7.70;;;7.40;;
19905;SDS011;10115;50.906;4.438;2023-03-07T13:09:31;12.40;;;11.80;;
19905;SDS011;10115;50.906;4.438;2023-03-07T13:14:55;12.03;;;11.37;;
19905;SDS011;10115;50.906;4.438;2023-03-07T13:27:53;11.67;;;11.03;;
19905;SDS011;10115;50.906;4.438;2023-03-07T13:30:33;11.23;;;10.73;;
19905;SDS011;10115;50.906;4.438;2023-03-07T13:33:41;12.00;;;11.50;;
19905;SDS011;10115;50.906;4.438;2023-03-07T13:35:54;11.70;;;11.20;;
19905;SDS011;10115;50.906;4.438;2023-03-07T13:41:01;10.97;;;10.47;;
19905;SDS011;10115;50.906;4.438;2023-03-07T13:43:32;12.07;;;11.50;;
19905;SDS011;10115;50.906;4.438;2023-03-07T13:46:29;12.33;;;11.67;;
19905;SDS011;10115;50.906;4.438;2023-03-07T13:49:07;12.70;;;12.03;;
19905;SDS011;10115;50.906;4.438;2023-03-07T13:51:33;11.23;;;10.63;;
19905;SDS011;10115;50.906;4.438;2023-03-07T13:53:59;10.83;;;10.30;;
19905;SDS011;10115;50.906;4.438;2023-03-07T13:56:28;9.27;;;8.87;;
19905;SDS011;10115;50.906;4.438;2023-03-07T13:59:17;10.73;;;10.23;;
19905;SDS011;10115;50.906;4.438;2023-03-07T14:01:47;7.10;;;6.70;;
19905;SDS011;10115;50.906;4.438;2023-03-07T14:04:23;7.93;;;7.33;;
19905;SDS011;10115;50.906;4.438;2023-03-07T14:26:29;6.57;;;6.27;;
19905;SDS011;10115;50.906;4.438;2023-03-07T14:28:59;6.33;;;6.03;;
19905;SDS011;10115;50.906;4.438;2023-03-07T14:31:27;6.33;;;5.97;;
19905;SDS011;10115;50.906;4.438;2023-03-07T14:34:33;5.97;;;5.57;;
19905;SDS011;10115;50.906;4.438;2023-03-07T14:40:26;6.10;;;5.80;;
19905;SDS011;10115;50.906;4.438;2023-03-07T14:51:28;6.17;;;5.87;;
19905;SDS011;10115;50.906;4.438;2023-03-07T14:53:55;8.83;;;7.97;;
19905;SDS011;10115;50.906;4.438;2023-03-07T14:56:26;7.37;;;6.73;;
19905;SDS011;10115;50.906;4.438;2023-03-07T14:58:54;5.80;;;5.50;;
19905;SDS011;10115;50.906;4.438;2023-03-07T15:01:28;5.77;;;5.57;;
19905;SDS011;10115;50.906;4.438;2023-03-07T15:03:55;6.03;;;5.73;;
19905;SDS011;10115;50.906;4.438;2023-03-07T15:06:22;6.57;;;6.17;;
19905;SDS011;10115;50.906;4.438;2023-03-07T15:08:50;5.57;;;5.37;;
19905;SDS011;10115;50.906;4.438;2023-03-07T15:11:33;6.17;;;5.87;;
19905;SDS011;10115;50.906;4.438;2023-03-07T15:14:34;5.67;;;5.47;;
19905;SDS011;10115;50.906;4.438;2023-03-07T15:17:16;5.13;;;4.93;;
19905;SDS011;10115;50.906;4.438;2023-03-07T15:19:50;5.47;;;5.27;;
19905;SDS011;10115;50.906;4.438;2023-03-07T15:22:27;5.40;;;5.20;;
19905;SDS011;10115;50.906;4.438;2023-03-07T15:24:55;5.77;;;5.47;;
19905;SDS011;10115;50.906;4.438;2023-03-07T15:27:30;6.07;;;5.77;;
19905;SDS011;10115;50.906;4.438;2023-03-07T15:29:57;6.83;;;6.53;;
19905;SDS011;10115;50.906;4.438;2023-03-07T15:32:37;5.67;;;5.47;;
19905;SDS011;10115;50.906;4.438;2023-03-07T15:37:33;7.13;;;6.73;;
19905;SDS011;10115;50.906;4.438;2023-03-07T15:40:01;7.20;;;6.70;;
19905;SDS011;10115;50.906;4.438;2023-03-07T15:42:31;7.20;;;6.80;;
19905;SDS011;10115;50.906;4.438;2023-03-07T15:44:59;6.73;;;6.37;;
19905;SDS011;10115;50.906;4.438;2023-03-07T15:47:27;7.30;;;6.90;;
19905;SDS011;10115;50.906;4.438;2023-03-07T15:49:56;7.50;;;7.07;;
19905;SDS011;10115;50.906;4.438;2023-03-07T15:52:42;9.07;;;8.33;;
19905;SDS011;10115;50.906;4.438;2023-03-07T15:55:22;6.07;;;5.77;;
19905;SDS011;10115;50.906;4.438;2023-03-07T15:57:51;8.13;;;7.33;;
19905;SDS011;10115;50.906;4.438;2023-03-07T16:00:32;7.57;;;7.07;;
19905;SDS011;10115;50.906;4.438;2023-03-07T16:05:40;6.13;;;5.83;;
19905;SDS011;10115;50.906;4.438;2023-03-07T16:08:11;7.20;;;6.60;;
19905;SDS011;10115;50.906;4.438;2023-03-07T16:10:39;7.37;;;6.87;;
19905;SDS011;10115;50.906;4.438;2023-03-07T16:13:20;6.43;;;6.03;;
19905;SDS011;10115;50.906;4.438;2023-03-07T16:16:00;6.73;;;6.23;;
19905;SDS011;10115;50.906;4.438;2023-03-07T16:18:28;7.30;;;6.90;;
19905;SDS011;10115;50.906;4.438;2023-03-07T16:20:55;8.20;;;7.47;;
19905;SDS011;10115;50.906;4.438;2023-03-07T16:23:21;8.83;;;8.23;;
19905;SDS011;10115;50.906;4.438;2023-03-07T16:25:47;9.50;;;8.67;;
19905;SDS011;10115;50.906;4.438;2023-03-07T16:28:12;9.63;;;8.90;;
19905;SDS011;10115;50.906;4.438;2023-03-07T16:30:39;11.53;;;8.93;;
19905;SDS011;10115;50.906;4.438;2023-03-07T16:33:11;8.43;;;7.93;;
19905;SDS011;10115;50.906;4.438;2023-03-07T16:35:38;7.73;;;7.27;;
19905;SDS011;10115;50.906;4.438;2023-03-07T16:38:03;8.40;;;7.90;;
19905;SDS011;10115;50.906;4.438;2023-03-07T16:40:30;9.60;;;8.70;;
19905;SDS011;10115;50.906;4.438;2023-03-07T16:42:56;9.33;;;8.53;;
19905;SDS011;10115;50.906;4.438;2023-03-07T16:47:52;6.13;;;5.83;;
19905;SDS011;10115;50.906;4.438;2023-03-07T16:50:26;7.50;;;6.97;;
19905;SDS011;10115;50.906;4.438;2023-03-07T16:52:54;8.03;;;7.53;;
19905;SDS011;10115;50.906;4.438;2023-03-07T16:55:20;7.77;;;7.33;;
19905;SDS011;10115;50.906;4.438;2023-03-07T16:57:49;7.17;;;6.77;;
19905;SDS011;10115;50.906;4.438;2023-03-07T17:00:18;8.57;;;7.97;;
19905;SDS011;10115;50.906;4.438;2023-03-07T17:02:46;11.67;;;11.07;;
19905;SDS011;10115;50.906;4.438;2023-03-07T17:05:16;12.77;;;11.93;;